createdAt,value
2022-10-01T00:02:07.515Z,12.30
2022-10-01T00:04:37.478Z,15.57
2022-10-01T00:07:09.828Z,16.07
2022-10-01T00:09:38.717Z,13.40
2022-10-01T00:12:06.350Z,15.93
2022-10-01T00:14:33.779Z,12.60
2022-10-01T00:17:01.442Z,10.43
2022-10-01T00:19:28.824Z,13.97
2022-10-01T00:21:56.102Z,11.33
2022-10-01T00:24:24.030Z,12.33
2022-10-01T00:26:51.917Z,11.47
2022-10-01T00:29:20.108Z,12.52
2022-10-01T00:31:48.115Z,16.23
2022-10-01T00:34:15.637Z,11.43
2022-10-01T00:36:43.362Z,11.17
2022-10-01T00:39:12.233Z,15.20
2022-10-01T00:41:40.552Z,11.00
2022-10-01T00:44:32.475Z,12.60
2022-10-01T00:47:20.384Z,11.53
2022-10-01T00:49:50.857Z,13.73
2022-10-01T00:52:25.020Z,16.73
2022-10-01T00:54:58.280Z,11.37
2022-10-01T00:57:27.697Z,11.77
2022-10-01T01:00:00.150Z,11.23
2022-10-01T01:02:27.869Z,11.90
2022-10-01T01:04:56.312Z,11.43
2022-10-01T01:07:24.183Z,11.85
2022-10-01T01:09:55.205Z,11.23
2022-10-01T01:13:02.047Z,11.60
2022-10-01T01:15:48.313Z,9.03
2022-10-01T01:18:31.926Z,12.13
2022-10-01T01:21:14.366Z,10.30
2022-10-01T01:23:54.251Z,10.87
2022-10-01T01:26:55.042Z,10.00
2022-10-01T01:29:53.004Z,15.43
2022-10-01T01:35:04.712Z,12.80
2022-10-01T01:37:38.147Z,10.70
2022-10-01T01:40:12.437Z,9.57
2022-10-01T01:42:44.219Z,12.57
2022-10-01T01:45:17.788Z,14.20
2022-10-01T01:47:46.715Z,12.83
2022-10-01T01:50:16.810Z,11.88
2022-10-01T01:52:44.201Z,10.50
2022-10-01T01:55:11.894Z,13.77
2022-10-01T01:57:44.300Z,11.70
2022-10-01T02:00:13.044Z,11.83
2022-10-01T02:02:47.079Z,11.55
2022-10-01T02:05:19.262Z,13.07
2022-10-01T02:08:03.770Z,10.23
2022-10-01T02:10:34.173Z,13.33
2022-10-01T02:13:35.290Z,12.13
2022-10-01T02:16:19.288Z,12.20
2022-10-01T02:18:57.786Z,9.23
2022-10-01T02:21:35.535Z,9.45
2022-10-01T02:24:31.882Z,11.25
2022-10-01T02:27:04.144Z,10.73
2022-10-01T02:29:34.912Z,9.13
2022-10-01T02:32:02.832Z,9.23
2022-10-01T02:34:31.863Z,11.53
2022-10-01T02:37:03.439Z,11.80
2022-10-01T02:39:34.742Z,13.17
2022-10-01T02:42:04.312Z,12.77
2022-10-01T02:44:38.274Z,8.77
2022-10-01T02:47:21.708Z,11.47
2022-10-01T02:49:51.204Z,8.70
2022-10-01T02:52:31.986Z,10.07
2022-10-01T02:55:07.744Z,12.03
2022-10-01T02:57:36.971Z,14.17
2022-10-01T03:00:11.407Z,10.90
2022-10-01T03:02:39.928Z,12.47
2022-10-01T03:05:08.303Z,12.05
2022-10-01T03:07:36.444Z,10.18
2022-10-01T03:10:05.987Z,12.57
2022-10-01T03:12:33.582Z,14.10
2022-10-01T03:15:01.359Z,10.00
2022-10-01T03:17:29.709Z,11.23
2022-10-01T03:19:58.088Z,14.47
2022-10-01T03:22:25.534Z,10.43
2022-10-01T03:24:54.097Z,11.73
2022-10-01T03:27:22.704Z,11.93
2022-10-01T03:29:50.410Z,11.55
2022-10-01T03:32:18.431Z,14.07
2022-10-01T03:34:46.974Z,14.97
2022-10-01T03:37:14.465Z,10.77
2022-10-01T03:39:43.282Z,9.83
2022-10-01T03:42:11.890Z,15.70
2022-10-01T03:44:39.744Z,11.35
2022-10-01T03:47:08.214Z,17.23
2022-10-01T03:49:38.162Z,10.27
2022-10-01T03:52:06.819Z,10.67
2022-10-01T03:57:02.768Z,12.57
2022-10-01T03:59:30.127Z,13.70
2022-10-01T04:01:58.256Z,12.33
2022-10-01T04:04:26.726Z,12.37
2022-10-01T04:06:54.662Z,11.17
2022-10-01T04:09:25.631Z,11.57
2022-10-01T04:11:53.580Z,10.43
2022-10-01T04:14:21.049Z,10.73
2022-10-01T04:16:50.759Z,11.47
2022-10-01T04:19:19.697Z,14.53
2022-10-01T04:21:47.181Z,12.98
2022-10-01T04:24:14.648Z,21.77
2022-10-01T04:26:42.681Z,13.13
2022-10-01T04:29:10.100Z,14.50
2022-10-01T04:31:38.009Z,12.03
2022-10-01T04:34:07.208Z,18.48
2022-10-01T04:36:34.855Z,13.20
2022-10-01T04:39:03.020Z,12.43
2022-10-01T04:41:31.912Z,14.43
2022-10-01T04:44:00.862Z,11.55
2022-10-01T04:46:30.664Z,10.60
2022-10-01T04:48:58.842Z,14.13
2022-10-01T04:51:26.402Z,9.97
2022-10-01T04:53:54.065Z,11.77
2022-10-01T04:56:21.981Z,12.23
2022-10-01T04:58:49.498Z,14.47
2022-10-01T05:01:17.351Z,11.63
2022-10-01T05:03:45.614Z,10.43
2022-10-01T05:06:13.137Z,10.90
2022-10-01T05:08:41.340Z,13.57
2022-10-01T05:11:10.514Z,14.10
2022-10-01T05:13:38.158Z,15.90
2022-10-01T05:16:06.166Z,15.00
2022-10-01T05:18:35.579Z,14.80
2022-10-01T05:21:07.596Z,15.07
2022-10-01T05:23:35.346Z,14.97
2022-10-01T05:26:05.921Z,10.47
2022-10-01T05:28:34.737Z,15.40
2022-10-01T05:31:07.530Z,19.07
2022-10-01T05:33:35.255Z,10.63
2022-10-01T05:36:07.019Z,14.23
2022-10-01T05:38:37.434Z,14.40
2022-10-01T05:41:05.952Z,16.87
2022-10-01T05:43:33.479Z,14.07
2022-10-01T05:46:02.288Z,13.70
2022-10-01T05:48:37.269Z,22.33
2022-10-01T05:51:08.455Z,16.60
2022-10-01T05:53:37.900Z,11.93
2022-10-01T05:56:07.097Z,14.07
2022-10-01T06:01:05.135Z,12.48
2022-10-01T06:03:33.476Z,11.90
2022-10-01T06:06:01.723Z,14.65
2022-10-01T06:08:29.473Z,11.53
2022-10-01T06:11:02.063Z,17.23
2022-10-01T06:13:29.838Z,12.87
2022-10-01T06:15:59.183Z,11.87
2022-10-01T06:18:27.532Z,13.67
2022-10-01T06:20:54.955Z,13.18
2022-10-01T06:23:23.664Z,11.47
2022-10-01T06:25:51.599Z,9.07
2022-10-01T06:28:19.466Z,13.57
2022-10-01T06:30:47.703Z,9.13
2022-10-01T06:33:17.337Z,8.07
2022-10-01T06:35:50.057Z,8.80
2022-10-01T06:38:20.300Z,7.17
2022-10-01T06:41:14.648Z,15.07
2022-10-01T06:43:42.462Z,11.07
2022-10-01T06:46:11.340Z,13.47
2022-10-01T06:51:06.720Z,8.90
2022-10-01T06:53:34.716Z,12.43
2022-10-01T06:56:10.939Z,7.37
2022-10-01T06:58:38.773Z,6.60
2022-10-01T07:01:06.292Z,9.20
2022-10-01T07:03:34.331Z,10.05
2022-10-01T07:06:05.504Z,8.40
2022-10-01T07:08:33.562Z,7.62
2022-10-01T07:11:03.320Z,9.02
2022-10-01T07:13:31.665Z,8.98
2022-10-01T07:15:59.353Z,8.60
2022-10-01T07:18:29.931Z,7.43
2022-10-01T07:20:58.095Z,6.72
2022-10-01T07:23:25.605Z,6.10
2022-10-01T07:25:53.797Z,6.78
2022-10-01T07:28:26.215Z,8.48
2022-10-01T07:31:04.025Z,7.65
2022-10-01T07:33:31.853Z,7.65
2022-10-01T07:36:04.662Z,6.12
2022-10-01T07:38:33.824Z,6.95
2022-10-01T07:43:34.865Z,7.80
2022-10-01T07:46:03.719Z,6.43
2022-10-01T07:48:31.311Z,5.53
2022-10-01T07:50:58.970Z,11.25
2022-10-01T07:53:28.934Z,8.75
2022-10-01T07:55:57.008Z,7.15
2022-10-01T07:58:25.226Z,10.70
2022-10-01T08:00:58.908Z,7.43
2022-10-01T08:03:26.995Z,4.43
2022-10-01T08:05:54.859Z,5.00
2022-10-01T08:08:22.755Z,5.30
2022-10-01T08:10:50.801Z,4.18
2022-10-01T08:13:19.212Z,7.50
2022-10-01T08:15:53.697Z,16.00
2022-10-01T08:18:22.925Z,7.85
2022-10-01T08:20:50.799Z,5.22
2022-10-01T08:23:18.837Z,4.83
2022-10-01T08:25:48.151Z,4.45
2022-10-01T08:28:16.716Z,4.80
2022-10-01T08:30:44.213Z,8.35
2022-10-01T08:33:14.648Z,7.18
2022-10-01T08:35:43.867Z,5.43
2022-10-01T08:38:12.867Z,5.20
2022-10-01T08:40:48.063Z,6.43
2022-10-01T08:43:30.947Z,19.23
2022-10-01T08:46:06.277Z,26.27
2022-10-01T08:48:47.805Z,19.83
2022-10-01T08:51:35.470Z,11.95
2022-10-01T08:54:35.543Z,14.30
2022-10-01T08:57:06.802Z,6.50
2022-10-01T09:03:09.235Z,9.90
2022-10-01T09:05:55.855Z,7.90
2022-10-01T09:08:45.093Z,4.32
2022-10-01T09:11:54.142Z,2.62
2022-10-01T09:14:37.669Z,5.60
2022-10-01T09:17:42.004Z,3.92
2022-10-01T09:20:30.695Z,3.92
2022-10-01T09:23:12.707Z,5.93
2022-10-01T09:25:41.199Z,3.47
2022-10-01T09:28:21.742Z,7.32
2022-10-01T09:30:55.978Z,3.17
2022-10-01T09:33:30.988Z,2.92
2022-10-01T09:36:10.457Z,6.55
2022-10-01T09:38:48.567Z,3.78
2022-10-01T09:41:16.300Z,4.50
2022-10-01T09:43:44.583Z,3.30
2022-10-01T09:46:17.353Z,4.33
2022-10-01T09:48:56.850Z,7.60
2022-10-01T09:51:41.253Z,6.32
2022-10-01T09:54:19.559Z,9.60
2022-10-01T09:56:53.814Z,3.78
2022-10-01T09:59:27.584Z,5.80
2022-10-01T10:01:59.311Z,3.50
2022-10-01T10:04:27.908Z,5.05
2022-10-01T10:07:06.261Z,4.28
2022-10-01T10:09:36.025Z,9.38
2022-10-01T10:12:03.899Z,9.50
2022-10-01T10:14:35.770Z,65.67
2022-10-01T10:17:12.982Z,28.27
2022-10-01T10:19:41.498Z,18.05
2022-10-01T10:24:41.692Z,8.07
2022-10-01T10:27:27.005Z,12.68
2022-10-01T10:30:15.005Z,6.47
2022-10-01T10:32:44.943Z,10.73
2022-10-01T10:35:17.412Z,5.37
2022-10-01T10:37:49.366Z,5.45
2022-10-01T10:40:28.462Z,7.70
2022-10-01T10:42:59.755Z,5.45
2022-10-01T10:45:39.046Z,5.53
2022-10-01T10:48:15.539Z,32.72
2022-10-01T10:50:45.719Z,5.00
2022-10-01T10:53:24.626Z,3.45
2022-10-01T10:56:01.292Z,3.87
2022-10-01T10:58:33.437Z,7.85
2022-10-01T11:01:16.528Z,5.32
2022-10-01T11:03:57.964Z,48.05
2022-10-01T11:06:25.639Z,3.95
2022-10-01T11:09:05.109Z,6.40
2022-10-01T11:12:00.318Z,15.38
2022-10-01T11:15:01.849Z,6.50
2022-10-01T11:18:09.633Z,3.37
2022-10-01T11:20:52.157Z,9.30
2022-10-01T11:23:57.123Z,4.55
2022-10-01T11:26:53.596Z,9.40
2022-10-01T11:29:48.353Z,8.25
2022-10-01T11:32:42.797Z,7.65
2022-10-01T11:35:34.556Z,50.35
2022-10-01T11:38:33.317Z,8.18
2022-10-01T11:41:20.039Z,8.10
2022-10-01T11:44:19.082Z,4.65
2022-10-01T11:49:29.738Z,4.43
2022-10-01T11:52:23.780Z,6.55
2022-10-01T11:55:22.026Z,5.28
2022-10-01T11:58:16.003Z,5.15
2022-10-01T12:00:54.938Z,6.07
2022-10-01T12:05:56.685Z,2.62
2022-10-01T12:08:30.503Z,3.42
2022-10-01T12:11:11.957Z,5.50
2022-10-01T12:13:45.669Z,4.10
2022-10-01T12:16:13.260Z,11.75
2022-10-01T12:18:51.956Z,6.67
2022-10-01T12:21:30.579Z,22.35
2022-10-01T12:24:05.640Z,28.27
2022-10-01T12:26:41.787Z,9.73
2022-10-01T12:29:36.523Z,10.73
2022-10-01T12:32:24.421Z,6.68
2022-10-01T12:35:26.363Z,12.18
2022-10-01T12:38:28.272Z,11.80
2022-10-01T12:41:11.319Z,11.40
2022-10-01T12:43:57.169Z,33.22
2022-10-01T12:46:53.332Z,55.05
2022-10-01T12:49:35.948Z,7.47
2022-10-01T12:52:16.019Z,6.57
2022-10-01T12:54:51.862Z,7.10
2022-10-01T12:57:40.741Z,21.42
2022-10-01T13:00:25.239Z,72.35
2022-10-01T13:03:18.847Z,10.63
2022-10-01T13:05:46.450Z,9.90
2022-10-01T13:08:17.503Z,5.00
2022-10-01T13:10:54.253Z,5.07
2022-10-01T13:13:26.506Z,18.75
2022-10-01T13:16:30.230Z,12.07
2022-10-01T13:19:08.484Z,3.67
2022-10-01T13:22:08.063Z,6.12
2022-10-01T13:25:01.533Z,3.85
2022-10-01T13:27:42.672Z,5.93
2022-10-01T13:30:22.503Z,4.70
2022-10-01T13:32:53.570Z,5.18
2022-10-01T13:35:21.664Z,8.27
2022-10-01T13:37:49.206Z,10.35
2022-10-01T13:40:27.153Z,7.70
2022-10-01T13:43:00.203Z,2.92
2022-10-01T13:45:40.542Z,6.90
2022-10-01T13:48:11.452Z,4.22
2022-10-01T13:50:40.361Z,3.55
2022-10-01T13:53:21.042Z,2.35
2022-10-01T13:55:49.036Z,5.82
2022-10-01T13:58:31.718Z,3.90
2022-10-01T14:01:03.833Z,4.30
2022-10-01T14:03:36.811Z,8.65
2022-10-01T14:06:07.995Z,4.60
2022-10-01T14:09:01.203Z,9.88
2022-10-01T14:11:51.658Z,4.40
2022-10-01T14:14:52.002Z,2.00
2022-10-01T14:17:28.240Z,3.97
2022-10-01T14:19:57.718Z,3.17
2022-10-01T14:22:49.659Z,3.50
2022-10-01T14:25:39.474Z,3.65
2022-10-01T14:28:16.809Z,5.53
2022-10-01T14:31:13.299Z,25.17
2022-10-01T14:33:56.358Z,35.65
2022-10-01T14:36:35.506Z,13.43
2022-10-01T14:39:24.465Z,4.40
2022-10-01T14:41:55.223Z,5.93
2022-10-01T14:44:37.518Z,3.15
2022-10-01T14:47:20.747Z,5.05
2022-10-01T14:49:49.358Z,2.80
2022-10-01T14:52:20.422Z,2.28
2022-10-01T14:54:57.503Z,6.12
2022-10-01T14:57:28.718Z,4.23
2022-10-01T14:59:58.348Z,3.62
2022-10-01T15:02:27.961Z,4.87
2022-10-01T15:04:57.413Z,5.10
2022-10-01T15:07:32.879Z,5.50
2022-10-01T15:10:08.489Z,8.88
2022-10-01T15:12:41.635Z,5.95
2022-10-01T15:15:19.791Z,14.25
2022-10-01T15:17:48.605Z,4.20
2022-10-01T15:20:18.296Z,6.53
2022-10-01T15:22:49.370Z,8.05
2022-10-01T15:25:22.489Z,7.35
2022-10-01T15:27:50.426Z,4.28
2022-10-01T15:32:51.220Z,6.47
2022-10-01T15:35:22.343Z,8.18
2022-10-01T15:37:52.556Z,8.23
2022-10-01T15:40:35.900Z,6.57
2022-10-01T15:43:15.028Z,5.05
2022-10-01T15:45:44.231Z,4.93
2022-10-01T15:48:30.482Z,11.77
2022-10-01T15:51:27.708Z,7.03
2022-10-01T15:54:09.366Z,9.25
2022-10-01T15:56:37.789Z,9.10
2022-10-01T15:59:25.828Z,9.23
2022-10-01T16:04:21.904Z,28.87
2022-10-01T16:06:53.136Z,39.40
2022-10-01T16:09:24.073Z,26.45
2022-10-01T16:12:03.390Z,29.45
2022-10-01T16:14:41.112Z,19.10
2022-10-01T16:17:18.056Z,26.83
2022-10-01T16:19:55.076Z,34.67
2022-10-01T16:22:29.062Z,23.92
2022-10-01T16:25:01.749Z,32.72
2022-10-01T16:27:44.289Z,23.67
2022-10-01T16:30:23.152Z,18.08
2022-10-01T16:32:50.765Z,18.20
2022-10-01T16:35:26.031Z,24.33
2022-10-01T16:37:57.112Z,38.88
2022-10-01T16:40:33.890Z,28.98
2022-10-01T16:43:02.740Z,27.10
2022-10-01T16:45:36.904Z,20.37
2022-10-01T16:48:15.854Z,26.02
2022-10-01T16:50:46.645Z,32.35
2022-10-01T16:53:17.291Z,21.77
2022-10-01T16:55:46.432Z,14.40
2022-10-01T16:58:14.081Z,22.73
2022-10-01T17:00:42.171Z,13.48
2022-10-01T17:03:19.151Z,11.85
2022-10-01T17:05:47.262Z,9.30
2022-10-01T17:08:16.069Z,6.50
2022-10-01T17:10:58.590Z,6.35
2022-10-01T17:13:28.269Z,12.52
2022-10-01T17:15:56.459Z,7.07
2022-10-01T17:18:24.003Z,43.97
2022-10-01T17:20:51.997Z,32.58
2022-10-01T17:23:21.922Z,29.00
2022-10-01T17:25:50.141Z,23.58
2022-10-01T17:28:20.476Z,22.10
2022-10-01T17:30:49.454Z,25.77
2022-10-01T17:33:19.624Z,35.25
2022-10-01T17:35:54.898Z,22.30
2022-10-01T17:38:23.277Z,15.73
2022-10-01T17:40:56.449Z,32.85
2022-10-01T17:43:24.665Z,28.08
2022-10-01T17:46:01.177Z,33.78
2022-10-01T17:48:29.338Z,17.70
2022-10-01T17:51:03.721Z,16.60
2022-10-01T17:53:39.852Z,19.73
2022-10-01T17:56:14.755Z,18.52
2022-10-01T17:58:45.558Z,18.35
2022-10-01T18:01:17.263Z,27.52
2022-10-01T18:03:45.608Z,25.35
2022-10-01T18:06:16.419Z,15.18
2022-10-01T18:08:55.172Z,39.70
2022-10-01T18:11:26.587Z,80.85
2022-10-01T18:13:54.044Z,41.92
2022-10-01T18:16:22.743Z,31.70
2022-10-01T18:21:45.181Z,37.92
2022-10-01T18:24:13.443Z,43.07
2022-10-01T18:26:41.810Z,39.83
2022-10-01T18:29:15.554Z,48.77
2022-10-01T18:31:45.296Z,53.15
2022-10-01T18:34:39.035Z,74.62
2022-10-01T18:37:39.831Z,55.85
2022-10-01T18:40:40.023Z,38.42
2022-10-01T18:43:18.119Z,58.17
2022-10-01T18:46:23.032Z,62.33
2022-10-01T18:49:06.447Z,59.65
2022-10-01T18:52:01.428Z,63.45
2022-10-01T18:54:48.627Z,46.65
2022-10-01T18:57:50.843Z,36.15
2022-10-01T19:00:24.860Z,41.78
2022-10-01T19:03:01.401Z,45.00
2022-10-01T19:06:09.847Z,46.22
2022-10-01T19:09:03.108Z,49.45
2022-10-01T19:11:53.424Z,45.45
2022-10-01T19:15:25.785Z,48.30
2022-10-01T19:18:21.105Z,14.00
2022-10-01T19:21:02.876Z,10.73
2022-10-01T19:23:47.627Z,9.50
2022-10-01T19:26:29.094Z,13.10
2022-10-01T19:29:40.329Z,10.87
2022-10-01T19:32:12.722Z,9.27
2022-10-01T19:35:03.447Z,4.63
2022-10-01T19:37:41.388Z,6.27
2022-10-01T19:40:35.123Z,7.00
2022-10-01T19:43:21.772Z,9.53
2022-10-01T19:46:09.402Z,7.97
2022-10-01T19:49:04.574Z,6.82
2022-10-01T19:51:43.886Z,7.43
2022-10-01T19:54:19.920Z,32.90
2022-10-01T19:56:54.635Z,34.77
2022-10-01T19:59:22.321Z,10.40
2022-10-01T20:01:59.228Z,13.73
2022-10-01T20:04:30.624Z,10.50
2022-10-01T20:07:10.247Z,11.02
2022-10-01T20:10:05.774Z,9.00
2022-10-01T20:12:55.959Z,11.23
2022-10-01T20:15:42.650Z,14.98
2022-10-01T20:18:27.790Z,10.93
2022-10-01T20:21:14.600Z,12.68
2022-10-01T20:23:53.913Z,13.65
2022-10-01T20:26:45.492Z,16.87
2022-10-01T20:29:32.480Z,13.32
2022-10-01T20:32:23.646Z,8.52
2022-10-01T20:35:06.218Z,7.53
2022-10-01T20:37:40.081Z,9.38
2022-10-01T20:40:25.252Z,14.18
2022-10-01T20:43:22.056Z,19.65
2022-10-01T20:45:52.764Z,8.15
2022-10-01T20:48:23.302Z,12.40
2022-10-01T20:50:54.196Z,14.93
2022-10-01T20:53:31.054Z,17.50
2022-10-01T20:56:08.243Z,15.77
2022-10-01T20:58:44.693Z,17.98
2022-10-01T21:01:20.759Z,15.50
2022-10-01T21:03:57.610Z,13.45
2022-10-01T21:06:40.037Z,11.93
2022-10-01T21:09:14.640Z,25.73
2022-10-01T21:11:48.050Z,20.35
2022-10-01T21:14:41.121Z,21.67
2022-10-01T21:17:24.911Z,15.80
2022-10-01T21:20:02.307Z,18.87
2022-10-01T21:23:03.345Z,11.25
2022-10-01T21:25:50.941Z,13.00
2022-10-01T21:28:52.844Z,16.48
2022-10-01T21:31:42.617Z,13.35
2022-10-01T21:34:30.078Z,13.38
2022-10-01T21:37:40.679Z,13.98
2022-10-01T21:40:43.279Z,11.12
2022-10-01T21:43:32.434Z,12.88
2022-10-01T21:46:23.548Z,11.03
2022-10-01T21:49:19.540Z,5.55
2022-10-01T21:51:58.671Z,12.40
2022-10-01T21:55:05.503Z,5.87
2022-10-01T21:57:43.497Z,8.60
2022-10-01T22:00:21.968Z,4.55
2022-10-01T22:03:17.499Z,3.40
2022-10-01T22:06:13.027Z,9.88
2022-10-01T22:08:59.904Z,7.62
2022-10-01T22:11:32.034Z,4.05
2022-10-01T22:14:03.774Z,5.60
2022-10-01T22:16:40.062Z,8.32
2022-10-01T22:19:17.476Z,4.60
2022-10-01T22:21:48.144Z,4.03
2022-10-01T22:24:33.940Z,3.13
2022-10-01T22:27:16.583Z,9.03
2022-10-01T22:30:08.245Z,6.93
2022-10-01T22:32:59.795Z,8.53
2022-10-01T22:35:35.518Z,15.53
2022-10-01T22:38:11.528Z,12.47
2022-10-01T22:40:46.021Z,16.65
2022-10-01T22:43:14.579Z,17.43
2022-10-01T22:45:48.939Z,16.97
2022-10-01T22:48:50.355Z,18.97
2022-10-01T22:51:23.862Z,21.20
2022-10-01T22:54:30.263Z,16.27
2022-10-01T22:57:07.959Z,24.17
2022-10-01T23:00:06.524Z,16.02
2022-10-01T23:02:45.736Z,9.90
2022-10-01T23:05:56.141Z,10.40
2022-10-01T23:08:40.641Z,15.90
2022-10-01T23:11:29.187Z,11.10
2022-10-01T23:16:59.148Z,10.52
2022-10-01T23:19:33.215Z,10.00
2022-10-01T23:22:01.271Z,11.55
2022-10-01T23:27:21.766Z,8.95
2022-10-01T23:30:08.200Z,9.48
2022-10-01T23:33:17.633Z,5.85
2022-10-01T23:36:06.543Z,6.70
2022-10-01T23:38:46.915Z,6.78
2022-10-01T23:41:25.026Z,5.10
2022-10-01T23:43:55.775Z,3.43
2022-10-01T23:46:33.244Z,8.90
2022-10-01T23:49:15.537Z,5.47
2022-10-01T23:51:53.038Z,10.13
2022-10-01T23:55:18.381Z,5.03
2022-10-01T23:57:48.588Z,6.70
